Latest Coastal Weather Observations for Strahan

IDT60701

Issued at 10:52 pm EDT Thursday 23 February 2017 (issued every 10 minutes, with the page automatically refreshed every 10 minutes)

About coastal observations | Map of coastal stations | Coastal observations for TAS | Marine services | Other Formats
Station Details ID: 097072 Name: STRAHAN AERODROME Lat: -42.16 Lon: 145.29 Height: 21.0 m
Data from the previous 72 hours. | See also: Recent months at Strahan
Date/Time
EDT
Temp
°C
Wind Pressure Rain since
9am
mm
Weather Cloud Vis
km
Sea
Height
m
Swell
Dir  Spd
kts
Gust
kts
hPa Trend Height
m
Period
s
Dir
23/10:30pm 12.1 SW 1 4 1021.6 - 1.6 - Partly cloudy 9 - - - -
23/10:10pm 12.1 WSW 3 5 1021.5 - 1.6 - Partly cloudy 10 - - - -
23/10:00pm 12.3 W 3 4 1021.5 - 1.6 - Cloudy 5 - - - -
23/09:30pm 12.6 E 3 5 1020.9 - 1.4 - Cloudy 4 - - - -
23/09:21pm 12.6 SE 3 4 1020.8 - 1.4 - Cloudy 5 - - - -
23/09:01pm 12.6 SSE 3 4 1020.3 - 1.4 - Partly cloudy 8 - - - -
23/09:00pm 12.6 SSE 3 4 1020.3 - 1.4 Recent precip. Cloudy 8 - - - -
23/08:43pm 12.6 S 6 8 1019.8 - 1.4 - Partly cloudy 6 - - - -
23/08:30pm 12.6 SSW 7 9 1019.6 - 1.4 - Partly cloudy 5 - - - -
23/08:27pm 12.7 SW 7 11 1019.6 - 1.4 - Partly cloudy 5 - - - -
23/08:14pm 12.7 SW 9 12 1019.4 - 1.4 - Partly cloudy 6 - - - -
23/08:00pm 12.9 SW 9 12 1019.2 - 1.2 - Partly cloudy 5 - - - -
23/07:30pm 13.3 SW 10 14 1018.7 - 1.2 - Partly cloudy 5 - - - -
23/07:00pm 13.7 SW 12 17 1018.3 - 1.2 - Cloudy 3 - - - -
23/06:30pm 14.3 SW 12 16 1017.8 - 1.0 - Partly cloudy 5 - - - -
23/06:28pm 14.4 WSW 12 16 1017.8 - 1.0 - Partly cloudy 5 - - - -
23/06:05pm 15.1 WSW 13 17 1017.5 - 1.0 - Partly cloudy 9 - - - -
23/06:00pm 15.2 WSW 13 17 1017.4 - 1.0 - Cloudy 7 - - - -
23/05:53pm 15.5 W 12 16 1017.3 - 1.0 - Partly cloudy 5 - - - -
23/05:49pm 15.6 W 11 15 1017.2 - 1.0 - Partly cloudy 5 - - - -
23/05:30pm 16.3 WNW 9 11 1016.9 - 1.0 - Partly cloudy 10 - - - -
23/05:19pm 16.0 WNW 9 14 1016.7 - 1.0 - Partly cloudy 10 - - - -
23/05:01pm 15.7 WNW 10 14 1016.6 - 1.0 - Partly cloudy 5 - - - -
23/05:00pm 16.2 WNW 10 14 1016.6 - 1.0 - Partly cloudy 6 - - - -
23/04:57pm 16.1 WNW 10 14 1016.6 - 1.0 - Partly cloudy 10 - - - -
23/04:36pm 16.2 WNW 12 16 1016.3 - 1.0 - Partly cloudy 5 - - - -
23/04:30pm 16.8 WNW 11 16 1016.1 - 1.0 - Partly cloudy 10 - - - -
23/04:00pm 18.4 NW 11 15 1015.7 - 1.0 - Partly cloudy 10 - - - -
23/03:47pm 18.8 NW 12 16 1015.6 - 1.0 - Partly cloudy 10 - - - -
23/03:30pm 19.1 WNW 9 12 1015.5 - 1.0 - Partly cloudy 10 - - - -
23/03:06pm 17.1 NW 10 14 1015.6 - 1.0 - Partly cloudy 10 - - - -
23/03:00pm 17.5 NW 10 16 1015.6 - 1.0 - Cloudy 7 - - - -
23/02:30pm 16.8 NNW 11 16 1015.6 - 1.0 - Partly cloudy 10 - - - -
23/02:00pm 16.8 NNW 11 15 1015.2 - 1.0 - Cloudy 10 - - - -
23/01:40pm 16.8 NW 11 15 1015.1 - 1.0 - Cloudy 10 - - - -
23/01:30pm 16.3 NW 12 16 1015.0 - 1.0 - Partly cloudy 5 - - - -
23/01:13pm 15.6 NW 12 16 1015.0 - 0.8 - Partly cloudy 5 - - - -
23/01:01pm 15.3 NW 13 18 1014.9 - 0.8 - Partly cloudy 8 - - - -
23/01:00pm 15.5 NW 13 17 1014.9 - 0.8 - Partly cloudy 10 - - - -
23/12:56pm 15.6 WNW 14 20 1014.8 - 0.8 - Partly cloudy 10 - - - -
23/12:35pm 15.8 NW 15 21 1014.5 - 0.6 - Partly cloudy 4 - - - -
23/12:30pm 15.7 NW 16 21 1014.4 - 0.4 - Partly cloudy 5 - - - -
23/12:20pm 16.3 NW 15 22 1014.2 - 0.4 - Partly cloudy 5 - - - -
23/12:18pm 16.5 NNW 14 22 1014.1 - 0.4 - Partly cloudy 6 - - - -
23/12:07pm 16.6 NW 13 17 1014.1 - 0.4 - Partly cloudy 7 - - - -
23/12:00pm 16.2 NW 11 16 1013.9 - 0.4 Recent precip. Cloudy 8 - - - -
23/11:56am 16.4 NW 11 16 1013.9 - 0.4 - Partly cloudy 5 - - - -
23/11:38am 15.9 NW 15 21 1013.7 - 0.0 - Partly cloudy 5 - - - -
23/11:31am 16.6 NW 15 21 1013.5 - 0.0 - Partly cloudy 10 - - - -
23/11:30am 16.8 NW 15 21 1013.5 - 0.0 - Partly cloudy 10 - - - -
23/11:00am 17.2 NW 15 19 1012.9 - 0.0 - Partly cloudy 10 - - - -
23/10:30am 17.1 NW 15 19 1012.7 - 0.0 - Partly cloudy 10 - - - -
23/10:00am 16.6 NW 15 22 1012.2 - 0.0 - Partly cloudy 10 - - - -
23/09:30am 16.4 NNW 21 26 1011.5 - 0.0 - Partly cloudy 10 - - - -
23/09:02am 16.2 NW 18 24 1011.2 - 0.0 - Cloudy 10 - - - -
23/09:00am 16.2 NW 18 24 1011.2 - 0.0 - Mostly cloudy 10 - - - -
23/08:50am 16.1 NW 19 26 1011.0 - 0.0 - Partly cloudy 10 - - - -
23/08:34am 15.9 NW 19 29 1010.7 - 0.0 - Partly cloudy 10 - - - -
23/08:30am 15.9 NW 20 29 1010.6 - 0.0 - Partly cloudy 10 - - - -
23/08:18am 15.8 NNW 20 27 1010.3 - 0.0 - Partly cloudy 9 - - - -
23/08:00am 15.8 NNW 18 24 1009.9 - 0.0 - Partly cloudy 8 - - - -
23/07:42am 16.2 NNW 16 26 1009.5 - 0.0 - Partly cloudy 8 - - - -
23/07:30am 15.9 NNW 18 23 1009.1 - 0.0 - Partly cloudy 9 - - - -
23/07:00am 16.1 NNW 18 27 1008.7 - 0.0 - Partly cloudy 8 - - - -
23/06:52am 16.2 NNW 17 27 1008.5 - 0.0 - Partly cloudy 10 - - - -
23/06:30am 17.2 NNW 17 24 1008.2 - 0.0 - Partly cloudy 10 - - - -
23/06:00am 17.5 NNW 16 23 1007.8 - 0.0 - Cloudy 10 - - - -
23/05:30am 17.6 NNW 16 21 1007.4 - 0.0 - Partly cloudy 10 - - - -
23/05:09am 17.7 NNW 16 26 1007.3 - 0.0 - Partly cloudy 10 - - - -
23/05:00am 17.9 NNW 16 23 1007.3 - 0.0 - Partly cloudy 10 - - - -
23/04:30am 18.0 N 13 19 1007.1 - 0.0 - Partly cloudy 10 - - - -
23/04:00am 17.9 NNW 13 18 1007.0 - 0.0 - - 10 - - - -
23/03:49am 18.2 NNW 15 25 1007.0 - 0.0 - - 10 - - - -
23/03:30am 18.5 NNW 16 23 1006.9 - 0.0 - Partly cloudy 10 - - - -
23/03:00am 19.6 NNW 20 31 1006.9 - 0.0 - Cloudy 10 - - - -
23/02:55am 19.7 NNW 17 29 1006.8 - 0.0 - Partly cloudy 10 - - - -
23/02:30am 20.4 NNW 16 24 1006.7 - 0.0 - Partly cloudy 10 - - - -
23/02:00am 20.7 N 18 29 1005.9 - 0.0 - Partly cloudy 10 - - - -
23/01:30am 20.9 N 15 29 1005.5 - 0.0 - - 10 - - - -
23/01:00am 21.4 N 16 26 1005.8 - 0.0 - - 10 - - - -
23/12:49am 21.4 N 15 25 1005.6 - 0.0 - - 10 - - - -
23/12:30am 21.0 N 15 20 1006.1 - 0.0 - - 10 - - - -
23/12:00am 21.1 NNW 18 25 1006.2 - 0.0 - Cloudy 10 - - - -
 
Date/Time
EDT
Temp
°C
Wind Pressure Rain since
9am
mm
Weather Cloud Vis
km
Sea
Height
m
Swell
Dir  Spd
kts
Gust
kts
hPa Trend Height
m
Period
s
Dir
22/11:43pm 20.4 NW 15 25 1006.2 - 0.0 - Cloudy 10 - - - -
22/11:30pm 22.2 NNE 12 16 1004.9 - 0.0 - Cloudy 10 - - - -
22/11:00pm 21.6 NE 8 13 1005.1 - 0.0 - Cloudy 10 - - - -
22/10:30pm 21.5 NE 9 14 1005.5 - 0.0 - Partly cloudy 10 - - - -
22/10:00pm 21.5 NE 11 16 1006.0 - 0.0 - - 10 - - - -
22/09:30pm 21.9 NE 11 17 1006.4 - 0.0 - - 10 - - - -
22/09:00pm 21.9 NE 13 21 1007.0 - 0.0 - Cloudy 10 - - - -
22/08:30pm 21.4 NE 11 16 1007.1 - 0.0 - - 10 - - - -
22/08:00pm 21.7 NNE 10 14 1007.3 - 0.0 - - 10 - - - -
22/07:30pm 22.7 NNE 12 20 1007.5 - 0.0 - - 10 - - - -
22/07:01pm 23.6 NNE 15 25 1007.5 - 0.0 - - 10 - - - -
22/07:00pm 23.6 NNE 14 25 1007.5 - 0.0 - - 10 - - - -
22/06:30pm 24.8 NNE 12 21 1008.3 - 0.0 - - 10 - - - -
22/06:09pm 25.4 N 15 25 1009.0 - 0.0 - - 10 - - - -
22/06:00pm 25.7 N 14 24 1008.8 - 0.0 - - 10 - - - -
22/05:30pm 25.6 N 14 23 1009.1 - 0.0 - - 10 - - - -
22/05:00pm 25.6 NNE 13 24 1008.9 - 0.0 - - 10 - - - -
22/04:32pm 25.7 N 15 25 1008.7 - 0.0 - - 10 - - - -
22/04:30pm 25.7 N 14 25 1008.7 - 0.0 - - 10 - - - -
22/04:00pm 26.8 N 15 23 1009.0 - 0.0 - - 10 - - - -
22/03:30pm 26.4 NNE 17 25 1009.3 - 0.0 - - 10 - - - -
22/03:15pm 26.6 N 15 26 1009.7 - 0.0 - - 10 - - - -
22/03:00pm 26.1 N 15 23 1009.9 - 0.0 - - 10 - - - -
22/02:30pm 25.1 NNE 16 26 1010.2 - 0.0 - - 10 - - - -
22/02:00pm 25.8 N 16 27 1010.5 - 0.0 - - 10 - - - -
22/01:31pm 25.4 NNE 15 25 1010.9 - 0.0 - - 10 - - - -
22/01:30pm 25.4 NNE 14 25 1010.9 - 0.0 - - 10 - - - -
22/01:00pm 24.0 N 17 27 1011.7 - 0.0 - - 10 - - - -
22/12:42pm 23.8 NNE 15 25 1011.9 - 0.0 - - 10 - - - -
22/12:30pm 23.6 NNE 15 23 1012.1 - 0.0 - - 10 - - - -
22/12:15pm 23.5 N 16 27 1012.3 - 0.0 - - 10 - - - -
22/12:00pm 23.3 N 16 23 1012.5 - 0.0 - - 10 - - - -
22/11:30am 23.1 N 12 22 1012.8 - 0.0 - - 10 - - - -
22/11:00am 21.5 NNE 13 21 1013.0 - 0.0 - - 10 - - - -
22/10:30am 21.1 NNE 13 21 1013.3 - 0.0 - - 10 - - - -
22/10:00am 19.6 NNE 12 17 1013.4 - 0.0 - - 10 - - - -
22/09:30am 17.1 NE 10 19 1013.7 - 0.0 - - 10 - - - -
22/09:00am 14.0 NE 9 13 1014.2 - 0.0 - - 10 - - - -
22/08:30am 13.0 NNE 10 13 1014.2 - 0.0 - - 10 - - - -
22/08:00am 10.4 NE 5 8 1014.4 - 0.0 - - 10 - - - -
22/07:30am 8.4 NW 1 3 1014.6 - 0.0 - - 10 - - - -
22/07:00am 7.6 N 4 5 1014.6 - 0.0 - - 10 - - - -
22/06:30am 7.8 NE 4 5 1014.5 - 0.0 - - 10 - - - -
22/06:00am 7.8 NNE 4 5 1014.5 - 0.0 - - 10 - - - -
22/05:30am 7.1 CALM 0 0 1014.5 - 0.0 - - 10 - - - -
22/05:00am 7.4 E 5 5 1014.5 - 0.0 - - 10 - - - -
22/04:30am 6.9 E 3 4 1015.0 - 0.0 - - 10 - - - -
22/04:00am 8.1 NE 6 7 1015.6 - 0.0 - - 10 - - - -
22/03:30am 7.9 NNE 4 6 1015.8 - 0.0 - - 10 - - - -
22/03:00am 7.7 NE 4 5 1016.2 - 0.0 - - 10 - - - -
22/02:30am 8.1 NE 5 7 1017.0 - 0.0 - - 10 - - - -
22/02:00am 8.2 NE 4 6 1017.4 - 0.0 - - 10 - - - -
22/01:30am 7.9 NE 3 5 1017.9 - 0.0 - - 10 - - - -
22/01:00am 8.3 NNE 5 6 1018.3 - 0.0 - - 10 - - - -
22/12:30am 8.3 NNE 4 6 1018.4 - 0.0 - - 10 - - - -
22/12:00am 8.0 N 5 6 1018.5 - 0.0 - - 10 - - - -
 
Date/Time
EDT
Temp
°C
Wind Pressure Rain since
9am
mm
Weather Cloud Vis
km
Sea
Height
m
Swell
Dir  Spd
kts
Gust
kts
hPa Trend Height
m
Period
s
Dir
21/11:30pm 8.4 NE 3 4 1018.5 - 0.0 - - 10 - - - -
21/11:00pm 9.0 NNE 4 5 1018.8 - 0.0 - - 10 - - - -
21/10:30pm 9.1 NE 5 5 1019.0 - 0.0 - - 10 - - - -
21/10:00pm 8.8 N 3 4 1019.3 - 0.0 - - 10 - - - -
21/09:30pm 10.0 SW 3 4 1019.3 - 0.0 - - 10 - - - -
21/09:00pm 10.4 SSW 4 5 1019.4 - 0.0 - - 10 - - - -
21/08:30pm 12.0 SW 3 4 1019.5 - 0.0 - - 10 - - - -
21/08:00pm 12.9 SW 4 6 1019.3 - 0.0 - - 10 - - - -
21/07:30pm 14.4 WSW 6 8 1019.2 - 0.0 - - 10 - - - -
21/07:00pm 15.3 WSW 6 7 1018.9 - 0.0 - - 10 - - - -
21/06:30pm 15.9 W 7 9 1019.0 - 0.0 - - 10 - - - -
21/06:00pm 15.8 W 7 9 1018.8 - 0.0 - - 10 - - - -
21/05:30pm 16.8 W 7 10 1018.9 - 0.0 - - 10 - - - -
21/05:00pm 16.5 W 8 12 1019.2 - 0.0 - - 10 - - - -
21/04:30pm 16.5 WSW 7 11 1019.4 - 0.0 - - 10 - - - -
21/04:00pm 16.3 W 9 13 1019.7 - 0.0 - - 10 - - - -
21/03:30pm 16.8 W 7 10 1019.5 - 0.0 - - 10 - - - -
21/03:00pm 17.0 W 9 14 1019.6 - 0.0 - - 10 - - - -
21/02:30pm 16.8 W 9 13 1020.0 - 0.0 - - 10 - - - -
21/02:00pm 16.9 W 9 14 1020.0 - 0.0 - - 10 - - - -
21/01:30pm 16.6 WSW 10 14 1020.3 - 0.0 - - 10 - - - -
21/01:00pm 16.9 WSW 10 15 1020.5 - 0.0 - - 10 - - - -
21/12:30pm 16.8 WSW 11 15 1020.5 - 0.0 - - 10 - - - -
21/12:00pm 16.5 WSW 10 14 1020.4 - 0.0 - - 10 - - - -
21/11:30am 14.7 SW 7 15 1020.4 - 0.0 - Partly cloudy 10 - - - -
21/11:00am 14.5 WSW 6 9 1020.3 - 0.0 - Partly cloudy 10 - - - -
21/10:30am 14.2 SE 3 6 1020.1 - 0.0 - Partly cloudy 10 - - - -
21/10:00am 15.2 ESE 6 8 1019.8 - 0.0 - Partly cloudy 10 - - - -
21/09:30am 13.8 E 5 6 1019.7 - 0.0 - Partly cloudy 10 - - - -
21/09:00am 12.6 ESE 4 6 1019.6 - 0.0 - Cloudy 10 - - - -
21/08:30am 12.2 NE 2 4 1019.2 - 0.0 - Partly cloudy 10 - - - -
21/08:00am 11.1 NE 3 4 1018.9 - 0.0 - Partly cloudy 10 - - - -
21/07:30am 9.1 NNE 4 4 1018.5 - 0.0 - Partly cloudy 10 - - - -
21/07:00am 9.2 NE 3 5 1018.1 - 0.0 - Partly cloudy 10 - - - -
21/06:30am 9.2 NE 4 5 1017.8 - 0.0 - Cloudy 10 - - - -
21/06:00am 9.4 N 4 5 1017.5 - 0.0 - Cloudy 10 - - - -
21/05:30am 9.2 NNE 4 6 1016.9 - 0.0 - Partly cloudy 10 - - - -
21/05:00am 9.2 NNE 4 5 1016.7 - 0.0 - Partly cloudy 10 - - - -
21/04:30am 9.2 NE 5 6 1016.3 - 0.0 - Partly cloudy 10 - - - -
21/04:00am 9.3 NNE 1 4 1016.1 - 0.0 - Partly cloudy 10 - - - -
21/03:30am 9.8 NE 3 4 1016.0 - 0.0 - Partly cloudy 10 - - - -
21/03:00am 9.9 ENE 3 4 1015.9 - 0.0 - Cloudy 10 - - - -
21/02:30am 9.6 ENE 3 4 1015.5 - 0.0 - Partly cloudy 10 - - - -
21/02:00am 9.3 CALM 0 0 1015.5 - 0.0 - - 10 - - - -
21/01:30am 10.4 CALM 0 0 1015.5 - 0.0 - Partly cloudy 10 - - - -
21/01:00am 10.8 ENE 5 6 1015.3 - 0.0 - - 10 - - - -
21/12:30am 11.4 SSE 5 7 1015.4 - 0.0 - Partly cloudy 10 - - - -
21/12:00am 12.5 SSE 8 11 1015.3 - 0.0 - Mostly cloudy 10 - - - -
 
Date/Time
EDT
Temp
°C
Wind Pressure Rain since
9am
mm
Weather Cloud Vis
km
Sea
Height
m
Swell
Dir  Spd
kts
Gust
kts
hPa Trend Height
m
Period
s
Dir
20/11:30pm 12.6 S 9 11 1015.2 - 0.0 - Partly cloudy 10 - - - -
20/11:00pm 13.3 SSE 8 11 1014.8 - 0.0 - Cloudy 10 - - - -

Other Formats:

Comma delimited format used in spreadsheet applications
http://www.bom.gov.au/fwo/IDT60701/IDT60701.94956.axf

JavaScript Object Notation format (JSON) in row-major order
http://www.bom.gov.au/fwo/IDT60701/IDT60701.94956.json